sensor_id;sensor_type;location;lat;lon;timestamp;pressure;altitude;pressure_sealevel;temperature;humidity
75039;BME280;63609;49.992;14.512;2023-11-21T00:02:27;97413.16;;;6.24;71.23
75039;BME280;63609;49.992;14.512;2023-11-21T00:04:54;97410.22;;;6.56;69.75
75039;BME280;63609;49.992;14.512;2023-11-21T00:07:22;97415.47;;;6.75;69.42
75039;BME280;63609;49.992;14.512;2023-11-21T00:09:49;97417.72;;;6.51;70.00
75039;BME280;63609;49.992;14.512;2023-11-21T00:12:16;97425.41;;;6.63;69.92
75039;BME280;63609;49.992;14.512;2023-11-21T00:14:44;97405.91;;;6.26;71.12
75039;BME280;63609;49.992;14.512;2023-11-21T00:17:11;97423.75;;;6.33;70.92
75039;BME280;63609;49.992;14.512;2023-11-21T00:19:38;97418.84;;;6.58;69.85
75039;BME280;63609;49.992;14.512;2023-11-21T00:22:05;97416.34;;;6.37;70.75
75039;BME280;63609;49.992;14.512;2023-11-21T00:24:34;97410.53;;;6.24;70.89
75039;BME280;63609;49.992;14.512;2023-11-21T00:27:01;97413.72;;;6.37;70.17
75039;BME280;63609;49.992;14.512;2023-11-21T00:29:28;97414.69;;;6.36;70.09
75039;BME280;63609;49.992;14.512;2023-11-21T00:31:56;97426.09;;;6.46;70.10
75039;BME280;63609;49.992;14.512;2023-11-21T00:34:23;97420.38;;;6.51;70.08
75039;BME280;63609;49.992;14.512;2023-11-21T00:36:50;97418.44;;;6.43;69.90
75039;BME280;63609;49.992;14.512;2023-11-21T00:39:17;97414.00;;;6.34;70.56
75039;BME280;63609;49.992;14.512;2023-11-21T00:41:44;97423.47;;;6.56;69.94
75039;BME280;63609;49.992;14.512;2023-11-21T00:44:15;97416.91;;;6.12;70.98
75039;BME280;63609;49.992;14.512;2023-11-21T00:46:42;97424.03;;;6.30;71.37
75039;BME280;63609;49.992;14.512;2023-11-21T00:49:10;97418.75;;;6.30;70.49
75039;BME280;63609;49.992;14.512;2023-11-21T00:51:37;97424.00;;;6.50;70.00
75039;BME280;63609;49.992;14.512;2023-11-21T00:54:04;97416.91;;;6.12;71.23
75039;BME280;63609;49.992;14.512;2023-11-21T00:56:33;97422.34;;;6.39;70.77
75039;BME280;63609;49.992;14.512;2023-11-21T00:59:00;97421.34;;;6.50;70.13
75039;BME280;63609;49.992;14.512;2023-11-21T01:03:31;97424.31;;;6.27;70.86
75039;BME280;63609;49.992;14.512;2023-11-21T01:05:59;97425.13;;;6.47;70.24
75039;BME280;63609;49.992;14.512;2023-11-21T01:08:26;97420.97;;;6.25;70.71
75039;BME280;63609;49.992;14.512;2023-11-21T01:10:53;97420.41;;;6.31;70.75
75039;BME280;63609;49.992;14.512;2023-11-21T01:13:20;97425.00;;;6.20;71.18
75039;BME280;63609;49.992;14.512;2023-11-21T01:15:48;97426.94;;;6.18;71.25
75039;BME280;63609;49.992;14.512;2023-11-21T01:18:15;97418.44;;;6.14;71.85
75039;BME280;63609;49.992;14.512;2023-11-21T01:20:42;97420.81;;;6.07;72.13
75039;BME280;63609;49.992;14.512;2023-11-21T01:23:09;97424.72;;;5.94;72.30
75039;BME280;63609;49.992;14.512;2023-11-21T01:25:36;97419.84;;;6.37;71.00
75039;BME280;63609;49.992;14.512;2023-11-21T01:28:03;97418.31;;;6.25;70.68
75039;BME280;63609;49.992;14.512;2023-11-21T01:30:30;97420.81;;;6.46;70.42
75039;BME280;63609;49.992;14.512;2023-11-21T01:32:59;97419.31;;;6.24;70.67
75039;BME280;63609;49.992;14.512;2023-11-21T01:35:27;97424.44;;;6.16;70.62
75039;BME280;63609;49.992;14.512;2023-11-21T01:37:54;97418.59;;;6.32;70.90
75039;BME280;63609;49.992;14.512;2023-11-21T01:40:21;97420.28;;;6.23;70.16
75039;BME280;63609;49.992;14.512;2023-11-21T01:42:48;97420.69;;;6.28;70.10
75039;BME280;63609;49.992;14.512;2023-11-21T01:45:15;97420.53;;;6.39;69.84
75039;BME280;63609;49.992;14.512;2023-11-21T01:47:43;97428.47;;;6.49;69.65
75039;BME280;63609;49.992;14.512;2023-11-21T01:50:16;97427.78;;;6.47;69.05
75039;BME280;63609;49.992;14.512;2023-11-21T01:52:46;97430.28;;;6.49;69.05
75039;BME280;63609;49.992;14.512;2023-11-21T01:55:15;97423.75;;;6.33;69.48
75039;BME280;63609;49.992;14.512;2023-11-21T01:57:56;97423.56;;;6.73;68.35
75039;BME280;63609;49.992;14.512;2023-11-21T02:00:26;97428.88;;;6.54;68.90
75039;BME280;63609;49.992;14.512;2023-11-21T02:02:56;97427.66;;;6.58;68.52
75039;BME280;63609;49.992;14.512;2023-11-21T02:05:23;97432.69;;;6.42;69.36
75039;BME280;63609;49.992;14.512;2023-11-21T02:07:51;97432.66;;;6.23;70.03
75039;BME280;63609;49.992;14.512;2023-11-21T02:10:19;97435.19;;;6.15;70.44
75039;BME280;63609;49.992;14.512;2023-11-21T02:12:51;97430.19;;;6.31;70.29
75039;BME280;63609;49.992;14.512;2023-11-21T02:15:20;97427.53;;;6.31;69.87
75039;BME280;63609;49.992;14.512;2023-11-21T02:17:49;97424.59;;;6.24;69.99
75039;BME280;63609;49.992;14.512;2023-11-21T02:20:22;97432.25;;;6.37;69.56
75039;BME280;63609;49.992;14.512;2023-11-21T02:22:50;97429.88;;;6.15;70.41
75039;BME280;63609;49.992;14.512;2023-11-21T02:25:19;97431.97;;;6.21;70.22
75039;BME280;63609;49.992;14.512;2023-11-21T02:27:47;97423.06;;;6.02;70.54
75039;BME280;63609;49.992;14.512;2023-11-21T02:30:15;97429.63;;;5.98;71.08
75039;BME280;63609;49.992;14.512;2023-11-21T02:32:42;97427.09;;;6.06;71.04
75039;BME280;63609;49.992;14.512;2023-11-21T02:35:15;97433.38;;;6.34;70.66
75039;BME280;63609;49.992;14.512;2023-11-21T02:37:42;97429.88;;;6.05;71.30
75039;BME280;63609;49.992;14.512;2023-11-21T02:40:10;97425.44;;;6.34;70.81
75039;BME280;63609;49.992;14.512;2023-11-21T02:42:39;97425.97;;;6.19;70.98
75039;BME280;63609;49.992;14.512;2023-11-21T02:45:07;97420.81;;;6.07;70.94
75039;BME280;63609;49.992;14.512;2023-11-21T02:47:35;97417.91;;;5.91;71.37
75039;BME280;63609;49.992;14.512;2023-11-21T02:50:02;97425.25;;;6.55;69.81
75039;BME280;63609;49.992;14.512;2023-11-21T02:52:30;97424.19;;;6.29;70.43
75039;BME280;63609;49.992;14.512;2023-11-21T02:55:00;97410.06;;;6.48;69.50
75039;BME280;63609;49.992;14.512;2023-11-21T02:57:27;97422.19;;;6.50;69.79
75039;BME280;63609;49.992;14.512;2023-11-21T02:59:55;97417.72;;;6.51;68.92
75039;BME280;63609;49.992;14.512;2023-11-21T03:02:22;97411.72;;;5.81;71.29
75039;BME280;63609;49.992;14.512;2023-11-21T03:04:49;97413.56;;;6.58;69.09
75039;BME280;63609;49.992;14.512;2023-11-21T03:07:17;97419.09;;;6.74;68.72
75039;BME280;63609;49.992;14.512;2023-11-21T03:09:46;97412.72;;;6.19;69.66
75039;BME280;63609;49.992;14.512;2023-11-21T03:12:14;97409.25;;;6.08;70.27
75039;BME280;63609;49.992;14.512;2023-11-21T03:14:42;97409.53;;;6.25;69.71
75039;BME280;63609;49.992;14.512;2023-11-21T03:17:09;97415.22;;;6.20;70.44
75039;BME280;63609;49.992;14.512;2023-11-21T03:19:37;97419.56;;;6.21;69.92
75039;BME280;63609;49.992;14.512;2023-11-21T03:22:04;97416.66;;;5.95;70.49
75039;BME280;63609;49.992;14.512;2023-11-21T03:24:32;97417.91;;;5.91;70.61
75039;BME280;63609;49.992;14.512;2023-11-21T03:26:59;97417.34;;;5.97;70.55
75039;BME280;63609;49.992;14.512;2023-11-21T03:29:27;97415.94;;;6.13;69.88
75039;BME280;63609;49.992;14.512;2023-11-21T03:31:54;97414.94;;;5.75;70.20
75039;BME280;63609;49.992;14.512;2023-11-21T03:34:26;97421.34;;;5.82;70.30
75039;BME280;63609;49.992;14.512;2023-11-21T03:36:54;97422.91;;;5.94;70.09
75039;BME280;63609;49.992;14.512;2023-11-21T03:39:22;97420.88;;;5.67;70.52
75039;BME280;63609;49.992;14.512;2023-11-21T03:41:49;97427.34;;;5.74;70.60
75039;BME280;63609;49.992;14.512;2023-11-21T03:44:18;97428.22;;;5.94;70.26
75039;BME280;63609;49.992;14.512;2023-11-21T03:46:46;97418.47;;;6.24;68.63
75039;BME280;63609;49.992;14.512;2023-11-21T03:49:13;97428.91;;;5.96;69.93
75039;BME280;63609;49.992;14.512;2023-11-21T03:51:41;97431.16;;;6.10;69.63
75039;BME280;63609;49.992;14.512;2023-11-21T03:54:08;97433.25;;;5.97;69.89
75039;BME280;63609;49.992;14.512;2023-11-21T03:56:38;97440.72;;;5.83;71.12
75039;BME280;63609;49.992;14.512;2023-11-21T03:59:06;97435.06;;;5.97;70.03
75039;BME280;63609;49.992;14.512;2023-11-21T04:01:33;97450.50;;;5.82;70.62
75039;BME280;63609;49.992;14.512;2023-11-21T04:04:00;97444.81;;;6.06;69.89
75039;BME280;63609;49.992;14.512;2023-11-21T04:06:27;97438.25;;;5.91;71.22
75039;BME280;63609;49.992;14.512;2023-11-21T04:08:54;97447.31;;;6.17;69.72
75039;BME280;63609;49.992;14.512;2023-11-21T04:11:21;97442.56;;;6.21;69.98
75039;BME280;63609;49.992;14.512;2023-11-21T04:13:48;97441.19;;;6.36;69.98
75039;BME280;63609;49.992;14.512;2023-11-21T04:16:16;97441.88;;;6.09;70.48
75039;BME280;63609;49.992;14.512;2023-11-21T04:18:43;97445.22;;;6.01;70.50
75039;BME280;63609;49.992;14.512;2023-11-21T04:21:10;97453.13;;;5.72;71.98
75039;BME280;63609;49.992;14.512;2023-11-21T04:23:37;97451.47;;;5.81;71.50
75039;BME280;63609;49.992;14.512;2023-11-21T04:26:04;97448.81;;;5.81;71.41
75039;BME280;63609;49.992;14.512;2023-11-21T04:28:31;97448.53;;;5.74;71.84
75039;BME280;63609;49.992;14.512;2023-11-21T04:30:59;97440.91;;;5.91;71.44
75039;BME280;63609;49.992;14.512;2023-11-21T04:33:26;97442.16;;;5.96;70.76
75039;BME280;63609;49.992;14.512;2023-11-21T04:35:53;97445.78;;;5.95;71.10
75039;BME280;63609;49.992;14.512;2023-11-21T04:38:20;97450.63;;;5.90;70.99
75039;BME280;63609;49.992;14.512;2023-11-21T04:40:47;97445.25;;;6.30;69.69
75039;BME280;63609;49.992;14.512;2023-11-21T04:43:14;97445.38;;;6.38;69.42
75039;BME280;63609;49.992;14.512;2023-11-21T04:45:42;97451.13;;;6.24;69.72
75039;BME280;63609;49.992;14.512;2023-11-21T04:48:10;97455.28;;;6.07;70.22
75039;BME280;63609;49.992;14.512;2023-11-21T04:50:37;97453.75;;;6.44;69.62
75039;BME280;63609;49.992;14.512;2023-11-21T04:53:05;97452.47;;;6.67;68.38
75039;BME280;63609;49.992;14.512;2023-11-21T04:55:33;97455.56;;;6.62;68.60
75039;BME280;63609;49.992;14.512;2023-11-21T04:58:00;97456.25;;;6.55;68.84
75039;BME280;63609;49.992;14.512;2023-11-21T05:00:27;97460.31;;;6.59;69.06
75039;BME280;63609;49.992;14.512;2023-11-21T05:02:54;97460.97;;;6.70;68.12
75039;BME280;63609;49.992;14.512;2023-11-21T05:05:21;97461.97;;;6.69;68.50
75039;BME280;63609;49.992;14.512;2023-11-21T05:07:49;97463.66;;;6.32;69.74
75039;BME280;63609;49.992;14.512;2023-11-21T05:10:16;97452.91;;;6.43;69.42
75039;BME280;63609;49.992;14.512;2023-11-21T05:12:43;97463.63;;;6.51;68.82
75039;BME280;63609;49.992;14.512;2023-11-21T05:15:14;97463.50;;;6.43;68.70
75039;BME280;63609;49.992;14.512;2023-11-21T05:17:41;97463.38;;;6.45;69.01
75039;BME280;63609;49.992;14.512;2023-11-21T05:20:11;97465.06;;;6.26;70.02
75039;BME280;63609;49.992;14.512;2023-11-21T05:22:40;97465.88;;;6.65;68.97
75039;BME280;63609;49.992;14.512;2023-11-21T05:25:07;97466.44;;;6.11;70.52
75039;BME280;63609;49.992;14.512;2023-11-21T05:27:35;97471.31;;;6.45;69.28
75039;BME280;63609;49.992;14.512;2023-11-21T05:30:04;97476.78;;;6.33;69.75
75039;BME280;63609;49.992;14.512;2023-11-21T05:32:38;97466.44;;;6.69;68.21
75039;BME280;63609;49.992;14.512;2023-11-21T05:35:06;97474.94;;;6.72;68.29
75039;BME280;63609;49.992;14.512;2023-11-21T05:37:38;97475.09;;;6.42;69.70
75039;BME280;63609;49.992;14.512;2023-11-21T05:40:07;97474.81;;;6.45;69.32
75039;BME280;63609;49.992;14.512;2023-11-21T05:42:36;97479.25;;;6.73;68.84
75039;BME280;63609;49.992;14.512;2023-11-21T05:45:04;97480.53;;;6.50;69.12
75039;BME280;63609;49.992;14.512;2023-11-21T05:47:43;97481.75;;;6.85;68.27
75039;BME280;63609;49.992;14.512;2023-11-21T05:50:15;97482.19;;;6.80;67.96
75039;BME280;63609;49.992;14.512;2023-11-21T05:52:44;97473.00;;;6.65;68.53
75039;BME280;63609;49.992;14.512;2023-11-21T05:55:13;97483.47;;;6.37;70.03
75039;BME280;63609;49.992;14.512;2023-11-21T05:57:42;97483.03;;;6.52;69.62
75039;BME280;63609;49.992;14.512;2023-11-21T06:00:12;97477.47;;;6.26;69.74
75039;BME280;63609;49.992;14.512;2023-11-21T06:02:39;97491.81;;;6.14;70.90
75039;BME280;63609;49.992;14.512;2023-11-21T06:05:08;97491.84;;;6.23;70.42
75039;BME280;63609;49.992;14.512;2023-11-21T06:07:37;97493.66;;;6.52;69.24
75039;BME280;63609;49.992;14.512;2023-11-21T06:10:07;97493.34;;;6.16;70.26
75039;BME280;63609;49.992;14.512;2023-11-21T06:12:38;97497.00;;;6.54;69.28
75039;BME280;63609;49.992;14.512;2023-11-21T06:15:07;97499.91;;;6.80;68.63
75039;BME280;63609;49.992;14.512;2023-11-21T06:17:36;97507.19;;;6.39;69.55
75039;BME280;63609;49.992;14.512;2023-11-21T06:20:05;97508.31;;;6.65;69.26
75039;BME280;63609;49.992;14.512;2023-11-21T06:22:42;97506.66;;;6.64;68.21
75039;BME280;63609;49.992;14.512;2023-11-21T06:25:11;97506.22;;;6.69;68.50
75039;BME280;63609;49.992;14.512;2023-11-21T06:27:42;97509.88;;;6.58;68.83
75039;BME280;63609;49.992;14.512;2023-11-21T06:30:10;97516.41;;;6.93;67.59
75039;BME280;63609;49.992;14.512;2023-11-21T06:32:38;97516.53;;;6.72;68.28
75039;BME280;63609;49.992;14.512;2023-11-21T06:35:07;97525.06;;;6.95;67.84
75039;BME280;63609;49.992;14.512;2023-11-21T06:37:39;97521.88;;;6.62;68.92
75039;BME280;63609;49.992;14.512;2023-11-21T06:40:07;97528.50;;;7.24;66.21
75039;BME280;63609;49.992;14.512;2023-11-21T06:42:37;97524.09;;;6.57;68.65
75039;BME280;63609;49.992;14.512;2023-11-21T06:45:05;97524.09;;;6.67;68.28
75039;BME280;63609;49.992;14.512;2023-11-21T06:47:32;97527.16;;;6.62;68.98
75039;BME280;63609;49.992;14.512;2023-11-21T06:50:00;97523.81;;;6.31;69.64
75039;BME280;63609;49.992;14.512;2023-11-21T06:52:28;97525.47;;;6.52;69.44
75039;BME280;63609;49.992;14.512;2023-11-21T06:54:55;97528.81;;;6.44;69.51
75039;BME280;63609;49.992;14.512;2023-11-21T06:57:23;97524.50;;;6.53;68.99
75039;BME280;63609;49.992;14.512;2023-11-21T06:59:51;97531.97;;;6.09;70.36
75039;BME280;63609;49.992;14.512;2023-11-21T07:02:18;97538.28;;;6.18;70.59
75039;BME280;63609;49.992;14.512;2023-11-21T07:04:46;97534.28;;;6.62;69.93
75039;BME280;63609;49.992;14.512;2023-11-21T07:07:14;97539.88;;;6.68;68.51
75039;BME280;63609;49.992;14.512;2023-11-21T07:09:41;97533.97;;;6.55;69.48
75039;BME280;63609;49.992;14.512;2023-11-21T07:12:09;97532.03;;;6.67;69.26
75039;BME280;63609;49.992;14.512;2023-11-21T07:14:38;97537.50;;;6.65;69.17
75039;BME280;63609;49.992;14.512;2023-11-21T07:17:07;97546.22;;;6.08;71.39
75039;BME280;63609;49.992;14.512;2023-11-21T07:19:34;97548.53;;;6.70;69.43
75039;BME280;63609;49.992;14.512;2023-11-21T07:22:05;97550.72;;;6.46;69.50
75039;BME280;63609;49.992;14.512;2023-11-21T07:24:34;97549.19;;;6.24;70.66
75039;BME280;63609;49.992;14.512;2023-11-21T07:27:01;97562.19;;;7.04;68.09
75039;BME280;63609;49.992;14.512;2023-11-21T07:29:31;97558.94;;;6.24;70.09
75039;BME280;63609;49.992;14.512;2023-11-21T07:31:59;97563.38;;;6.14;71.22
75039;BME280;63609;49.992;14.512;2023-11-21T07:34:27;97556.19;;;6.73;69.17
75039;BME280;63609;49.992;14.512;2023-11-21T07:36:54;97559.13;;;6.80;69.60
75039;BME280;63609;49.992;14.512;2023-11-21T07:39:22;97555.66;;;6.60;69.81
75039;BME280;63609;49.992;14.512;2023-11-21T07:41:48;97554.91;;;6.39;70.58
75039;BME280;63609;49.992;14.512;2023-11-21T07:44:17;97553.38;;;6.36;70.63
75039;BME280;63609;49.992;14.512;2023-11-21T07:46:44;97553.28;;;6.67;69.04
75039;BME280;63609;49.992;14.512;2023-11-21T07:49:12;97561.34;;;6.46;69.93
75039;BME280;63609;49.992;14.512;2023-11-21T07:51:44;97564.28;;;6.82;68.51
75039;BME280;63609;49.992;14.512;2023-11-21T07:54:12;97569.59;;;6.62;69.11
75039;BME280;63609;49.992;14.512;2023-11-21T07:56:40;97573.66;;;6.66;68.96
75039;BME280;63609;49.992;14.512;2023-11-21T07:59:07;97567.75;;;6.34;69.67
75039;BME280;63609;49.992;14.512;2023-11-21T08:01:35;97560.84;;;6.12;71.19
75039;BME280;63609;49.992;14.512;2023-11-21T08:04:02;97567.91;;;6.52;70.03
75039;BME280;63609;49.992;14.512;2023-11-21T08:06:31;97564.97;;;6.55;69.47
75039;BME280;63609;49.992;14.512;2023-11-21T08:09:01;97562.19;;;6.66;69.49
75039;BME280;63609;49.992;14.512;2023-11-21T08:11:29;97564.84;;;6.95;68.98
75039;BME280;63609;49.992;14.512;2023-11-21T08:13:58;97570.69;;;7.27;68.44
75039;BME280;63609;49.992;14.512;2023-11-21T08:16:26;97573.38;;;6.89;68.72
75039;BME280;63609;49.992;14.512;2023-11-21T08:18:55;97573.38;;;6.79;69.71
75039;BME280;63609;49.992;14.512;2023-11-21T08:21:22;97571.50;;;7.18;68.75
75039;BME280;63609;49.992;14.512;2023-11-21T08:23:57;97573.50;;;6.97;69.67
75039;BME280;63609;49.992;14.512;2023-11-21T08:26:24;97580.31;;;6.51;70.50
75039;BME280;63609;49.992;14.512;2023-11-21T08:28:52;97574.34;;;6.68;69.68
75039;BME280;63609;49.992;14.512;2023-11-21T08:31:26;97571.69;;;6.68;69.91
75039;BME280;63609;49.992;14.512;2023-11-21T08:33:53;97569.44;;;7.02;69.14
75039;BME280;63609;49.992;14.512;2023-11-21T08:36:25;97574.22;;;6.89;69.39
75039;BME280;63609;49.992;14.512;2023-11-21T08:38:53;97574.63;;;7.04;68.73
75039;BME280;63609;49.992;14.512;2023-11-21T08:41:23;97573.34;;;7.18;69.00
75039;BME280;63609;49.992;14.512;2023-11-21T08:43:50;97581.44;;;7.36;67.84
75039;BME280;63609;49.992;14.512;2023-11-21T08:46:18;97585.22;;;7.14;68.02
75039;BME280;63609;49.992;14.512;2023-11-21T08:48:47;97582.03;;;6.91;68.60
75039;BME280;63609;49.992;14.512;2023-11-21T08:51:16;97586.50;;;7.29;68.13
75039;BME280;63609;49.992;14.512;2023-11-21T08:53:43;97596.53;;;7.25;67.45
75039;BME280;63609;49.992;14.512;2023-11-21T08:56:14;97604.25;;;6.99;68.10
75039;BME280;63609;49.992;14.512;2023-11-21T08:58:42;97599.75;;;7.00;68.43
75039;BME280;63609;49.992;14.512;2023-11-21T09:01:09;97599.34;;;6.76;69.50
75039;BME280;63609;49.992;14.512;2023-11-21T09:03:37;97607.97;;;7.16;68.75
75039;BME280;63609;49.992;14.512;2023-11-21T09:06:05;97614.00;;;6.80;68.96
75039;BME280;63609;49.992;14.512;2023-11-21T09:08:33;97614.97;;;7.08;68.51
75039;BME280;63609;49.992;14.512;2023-11-21T09:11:00;97613.84;;;7.20;68.53
75039;BME280;63609;49.992;14.512;2023-11-21T09:13:27;97613.00;;;7.19;68.46
75039;BME280;63609;49.992;14.512;2023-11-21T09:15:54;97616.94;;;7.15;67.65
75039;BME280;63609;49.992;14.512;2023-11-21T09:18:22;97620.72;;;7.22;68.25
75039;BME280;63609;49.992;14.512;2023-11-21T09:20:49;97617.66;;;6.98;67.92
75039;BME280;63609;49.992;14.512;2023-11-21T09:23:17;97617.75;;;6.87;66.80
75039;BME280;63609;49.992;14.512;2023-11-21T09:25:44;97625.06;;;7.23;66.63
75039;BME280;63609;49.992;14.512;2023-11-21T09:28:13;97614.56;;;6.83;67.14
75039;BME280;63609;49.992;14.512;2023-11-21T09:30:40;97625.75;;;7.25;66.09
75039;BME280;63609;49.992;14.512;2023-11-21T09:33:09;97617.78;;;7.25;66.44
75039;BME280;63609;49.992;14.512;2023-11-21T09:35:38;97621.66;;;7.60;65.63
75039;BME280;63609;49.992;14.512;2023-11-21T09:38:05;97632.19;;;7.32;66.70
75039;BME280;63609;49.992;14.512;2023-11-21T09:40:39;97625.63;;;7.37;65.87
75039;BME280;63609;49.992;14.512;2023-11-21T09:43:08;97634.00;;;7.32;66.05
75039;BME280;63609;49.992;14.512;2023-11-21T09:45:47;97626.84;;;7.52;66.52
75039;BME280;63609;49.992;14.512;2023-11-21T09:48:15;97628.81;;;7.59;65.88
75039;BME280;63609;49.992;14.512;2023-11-21T09:50:43;97632.72;;;6.88;67.12
75039;BME280;63609;49.992;14.512;2023-11-21T09:53:20;97635.09;;;7.10;67.15
75039;BME280;63609;49.992;14.512;2023-11-21T09:55:51;97638.16;;;7.15;67.04
75039;BME280;63609;49.992;14.512;2023-11-21T09:58:20;97641.25;;;7.01;67.25
75039;BME280;63609;49.992;14.512;2023-11-21T10:00:53;97641.13;;;7.02;66.72
75039;BME280;63609;49.992;14.512;2023-11-21T10:03:20;97636.63;;;7.03;66.68
75039;BME280;63609;49.992;14.512;2023-11-21T10:05:50;97632.56;;;6.80;67.18
75039;BME280;63609;49.992;14.512;2023-11-21T10:08:19;97640.97;;;7.23;66.70
75039;BME280;63609;49.992;14.512;2023-11-21T10:10:51;97642.25;;;7.39;65.85
75039;BME280;63609;49.992;14.512;2023-11-21T10:13:20;97639.56;;;7.58;65.58
75039;BME280;63609;49.992;14.512;2023-11-21T10:15:50;97637.63;;;7.41;65.98
75039;BME280;63609;49.992;14.512;2023-11-21T10:18:19;97636.91;;;7.10;66.71
75039;BME280;63609;49.992;14.512;2023-11-21T10:20:46;97641.53;;;7.46;66.38
75039;BME280;63609;49.992;14.512;2023-11-21T10:23:21;97646.50;;;7.78;65.18
75039;BME280;63609;49.992;14.512;2023-11-21T10:25:51;97643.09;;;7.95;64.99
75039;BME280;63609;49.992;14.512;2023-11-21T10:28:19;97641.53;;;7.08;66.85
75039;BME280;63609;49.992;14.512;2023-11-21T10:30:48;97644.41;;;7.72;65.11
75039;BME280;63609;49.992;14.512;2023-11-21T10:33:16;97646.25;;;7.72;65.23
75039;BME280;63609;49.992;14.512;2023-11-21T10:35:48;97641.66;;;7.64;64.55
75039;BME280;63609;49.992;14.512;2023-11-21T10:38:19;97645.41;;;7.71;64.42
75039;BME280;63609;49.992;14.512;2023-11-21T10:40:52;97636.91;;;7.48;64.22
75039;BME280;63609;49.992;14.512;2023-11-21T10:43:20;97636.31;;;7.74;64.47
75039;BME280;63609;49.992;14.512;2023-11-21T10:45:51;97646.16;;;7.44;65.13
75039;BME280;63609;49.992;14.512;2023-11-21T10:48:20;97642.38;;;7.37;64.98
75039;BME280;63609;49.992;14.512;2023-11-21T10:50:48;97638.88;;;7.17;65.24
75039;BME280;63609;49.992;14.512;2023-11-21T10:53:16;97640.94;;;7.62;64.10
75039;BME280;63609;49.992;14.512;2023-11-21T10:55:44;97636.38;;;7.54;64.20
75039;BME280;63609;49.992;14.512;2023-11-21T10:58:14;97641.09;;;7.60;64.29
75039;BME280;63609;49.992;14.512;2023-11-21T11:00:41;97637.44;;;7.71;64.22
75039;BME280;63609;49.992;14.512;2023-11-21T11:03:13;97631.03;;;7.45;64.93
75039;BME280;63609;49.992;14.512;2023-11-21T11:05:44;97632.59;;;7.57;65.18
75039;BME280;63609;49.992;14.512;2023-11-21T11:08:21;97633.28;;;7.59;63.95
75039;BME280;63609;49.992;14.512;2023-11-21T11:10:54;97633.78;;;7.72;63.98
75039;BME280;63609;49.992;14.512;2023-11-21T11:13:22;97636.31;;;7.74;64.17
75039;BME280;63609;49.992;14.512;2023-11-21T11:15:50;97637.44;;;7.71;63.58
75039;BME280;63609;49.992;14.512;2023-11-21T11:18:18;97630.69;;;8.14;62.68
75039;BME280;63609;49.992;14.512;2023-11-21T11:20:50;97628.03;;;7.77;62.76
75039;BME280;63609;49.992;14.512;2023-11-21T11:29:06;97633.13;;;8.07;61.91
75039;BME280;63609;49.992;14.512;2023-11-21T11:35:17;97624.69;;;8.12;62.60
75039;BME280;63609;49.992;14.512;2023-11-21T11:37:46;97621.59;;;8.44;61.37
75039;BME280;63609;49.992;14.512;2023-11-21T11:40:14;97628.72;;;8.53;61.49
75039;BME280;63609;49.992;14.512;2023-11-21T11:42:58;97619.28;;;8.58;61.06
75039;BME280;63609;49.992;14.512;2023-11-21T11:45:34;97619.56;;;9.01;59.04
75039;BME280;63609;49.992;14.512;2023-11-21T11:48:03;97630.13;;;9.10;58.89
75039;BME280;63609;49.992;14.512;2023-11-21T11:50:31;97621.41;;;9.18;58.94
75039;BME280;63609;49.992;14.512;2023-11-21T11:53:13;97631.97;;;8.92;59.57
75039;BME280;63609;49.992;14.512;2023-11-21T11:55:40;97630.38;;;9.17;57.07
75039;BME280;63609;49.992;14.512;2023-11-21T11:58:08;97623.59;;;9.05;56.45
75039;BME280;63609;49.992;14.512;2023-11-21T12:00:35;97627.78;;;9.25;56.89
75039;BME280;63609;49.992;14.512;2023-11-21T12:03:08;97622.84;;;8.95;56.59
75039;BME280;63609;49.992;14.512;2023-11-21T12:05:36;97618.97;;;8.89;56.08
75039;BME280;63609;49.992;14.512;2023-11-21T12:08:07;97619.63;;;9.27;55.16
75039;BME280;63609;49.992;14.512;2023-11-21T12:10:39;97620.25;;;9.90;54.83
75039;BME280;63609;49.992;14.512;2023-11-21T12:13:11;97616.91;;;10.14;54.68
75039;BME280;63609;49.992;14.512;2023-11-21T12:15:40;97621.78;;;10.69;51.71
75039;BME280;63609;49.992;14.512;2023-11-21T12:18:09;97619.41;;;10.58;50.88
75039;BME280;63609;49.992;14.512;2023-11-21T12:20:37;97616.22;;;10.12;51.58
75039;BME280;63609;49.992;14.512;2023-11-21T12:23:08;97624.34;;;10.02;52.89
75039;BME280;63609;49.992;14.512;2023-11-21T12:25:41;97621.84;;;9.31;53.98
75039;BME280;63609;49.992;14.512;2023-11-21T12:28:09;97621.53;;;8.99;55.03
75039;BME280;63609;49.992;14.512;2023-11-21T12:30:37;97624.75;;;9.20;55.78
75039;BME280;63609;49.992;14.512;2023-11-21T12:33:07;97630.59;;;9.24;54.50
75039;BME280;63609;49.992;14.512;2023-11-21T12:35:37;97634.94;;;8.89;55.61
75039;BME280;63609;49.992;14.512;2023-11-21T12:38:05;97629.25;;;8.84;54.80
75039;BME280;63609;49.992;14.512;2023-11-21T12:40:33;97632.66;;;8.67;54.38
75039;BME280;63609;49.992;14.512;2023-11-21T12:43:01;97635.09;;;8.87;54.75
75039;BME280;63609;49.992;14.512;2023-11-21T12:45:30;97641.56;;;7.93;54.84
75039;BME280;63609;49.992;14.512;2023-11-21T12:48:03;97642.91;;;8.07;54.01
75039;BME280;63609;49.992;14.512;2023-11-21T12:50:37;97636.00;;;8.23;55.23
75039;BME280;63609;49.992;14.512;2023-11-21T12:53:10;97643.47;;;8.38;53.83
75039;BME280;63609;49.992;14.512;2023-11-21T12:55:44;97638.19;;;8.01;53.85
75039;BME280;63609;49.992;14.512;2023-11-21T12:58:17;97642.84;;;7.79;54.53
75039;BME280;63609;49.992;14.512;2023-11-21T13:00:48;97632.94;;;8.18;53.17
75039;BME280;63609;49.992;14.512;2023-11-21T13:03:16;97644.69;;;8.43;53.99
75039;BME280;63609;49.992;14.512;2023-11-21T13:05:48;97643.75;;;8.07;55.67
75039;BME280;63609;49.992;14.512;2023-11-21T13:08:21;97640.22;;;7.70;56.22
75039;BME280;63609;49.992;14.512;2023-11-21T13:10:56;97641.19;;;7.78;55.98
75039;BME280;63609;49.992;14.512;2023-11-21T13:13:27;97646.50;;;7.78;55.95
75039;BME280;63609;49.992;14.512;2023-11-21T13:16:05;97652.69;;;7.50;57.44
75039;BME280;63609;49.992;14.512;2023-11-21T13:18:32;97661.81;;;8.04;55.77
75039;BME280;63609;49.992;14.512;2023-11-21T13:21:06;97660.03;;;7.85;56.47